Scottish Viking — IBDZ — position and weather

sailwx.info

Track history (hours):
 
Tides and Currents Weather Stations Pressure Air Temp Water Temp Dewpoint Dewpoint Depression Visibility Wind Speed Wind Dir Waves Ship Positions

Scottish Viking

Last reported at 2015-Jan-30 21:33 UTC. Time now 2015-Jan-30 21:38 UTC.
Position N 58°51' E 017°60'.

Length 186 m; draft 6.4 m.

Type: Ship. MMSI: 247265800.

Date/timePositionNaut miles runAvg speedWind from/ knotsBaromVisibWave heightAir tempDewpointWater temp
2015-Jan-30 21:33N 58°51' E 017°60'4 3.4
2015-Jan-30 20:31N 58°54' E 017°58'0 0.0
2015-Jan-30 19:31N 58°54' E 017°58'0 0.0
2015-Jan-30 18:31N 58°54' E 017°58'0 0.0
2015-Jan-30 17:31N 58°54' E 017°58'0 0.0
2015-Jan-30 16:28N 58°54' E 017°58'0 0.0
2015-Jan-30 15:31N 58°54' E 017°58'0 0.0
2015-Jan-30 14:31N 58°54' E 017°58'0 0.0
2015-Jan-30 13:31N 58°54' E 017°58'0 0.0
2015-Jan-30 12:28N 58°54' E 017°58'0 0.0
2015-Jan-30 11:31N 58°54' E 017°58'0 0.0
2015-Jan-30 10:31N 58°54' E 017°58'0 0.0
2015-Jan-30 09:31N 58°54' E 017°58'0 0.0
2015-Jan-30 08:31N 58°54' E 017°58'0 0.0
2015-Jan-30 07:28N 58°54' E 017°58'0 0.2
2015-Jan-30 06:34N 58°54' E 017°58'9 8.6
2015-Jan-30 05:34N 58°47' E 018°06'6 0.2
2015-Jan-28 23:15N 58°43' E 018°14'1217.0
2015-Jan-28 22:33N 58°53' E 018°01'2 2.4
2015-Jan-28 21:33N 58°54' E 017°58'0 0.0
2015-Jan-28 20:33N 58°54' E 017°58'0 0.0
2015-Jan-28 19:33N 58°54' E 017°58'0 0.0
2015-Jan-28 18:33N 58°54' E 017°58'0 0.2
2015-Jan-28 17:34N 58°54' E 017°58'14 0.6
2015-Jan-27 19:07N 58°43' E 018°14'814.1
2015-Jan-27 18:33N 58°48' E 018°02'7 6.4
2015-Jan-27 17:31N 58°54' E 017°58'0 0.0
2015-Jan-27 16:28N 58°54' E 017°58'0 0.0
2015-Jan-27 15:31N 58°54' E 017°58'0 0.0
2015-Jan-27 14:28N 58°54' E 017°58'0 0.0
2015-Jan-27 13:31N 58°54' E 017°58'0 0.0
2015-Jan-27 12:31N 58°54' E 017°58'0 0.0
2015-Jan-27 11:31N 58°54' E 017°58'0 0.0
2015-Jan-27 10:31N 58°54' E 017°58'0 0.0
2015-Jan-27 09:31N 58°54' E 017°58'0 0.3
2015-Jan-27 08:33N 58°55' E 017°58'14 0.6
2015-Jan-26 10:21N 58°43' E 018°14'1012.8
2015-Jan-26 09:33N 58°50' E 017°60'4 4.3
2015-Jan-26 08:32N 58°54' E 017°58'1 0.6
2015-Jan-26 07:33N 58°55' E 017°59'16 0.7
2015-Jan-25 08:28N 58°41' E 018°16'1213.3
2015-Jan-25 07:33N 58°50' E 017°60'4 4.4
2015-Jan-25 06:33N 58°54' E 017°58'0 0.0
2015-Jan-25 05:33N 58°54' E 017°58'0 0.4
2015-Jan-25 04:33N 58°55' E 017°58'9 8.9
2015-Jan-25 03:33N 58°47' E 018°06'7 0.2
2015-Jan-23 22:19N 58°42' E 018°16'1013.1
2015-Jan-23 21:33N 58°48' E 018°01'6 6.1
2015-Jan-23 20:31N 58°54' E 017°58'0 0.0
2015-Jan-23 19:31N 58°54' E 017°58'0 0.0
2015-Jan-23 18:31N 58°54' E 017°58'0 0.0
2015-Jan-23 17:31N 58°54' E 017°58'0 0.0
2015-Jan-23 16:31N 58°54' E 017°58'0 0.0
2015-Jan-23 15:31N 58°54' E 017°58'0 0.0
2015-Jan-23 14:28N 58°54' E 017°58'0 0.0
2015-Jan-23 13:31N 58°54' E 017°58'0 0.0
2015-Jan-23 12:31N 58°54' E 017°58'0 0.0
2015-Jan-23 11:31N 58°54' E 017°58'0 0.0
2015-Jan-23 10:31N 58°54' E 017°58'0 0.0
2015-Jan-23 09:31N 58°54' E 017°58'0 0.0
2015-Jan-23 08:31N 58°54' E 017°58'0 0.0
2015-Jan-23 07:28N 58°54' E 017°58'1 1.2
2015-Jan-23 06:34N 58°55' E 017°60'9 9.5
2015-Jan-23 05:33N 58°46' E 018°07'4 0.1
2015-Jan-21 22:12N 58°43' E 018°12'812.1
2015-Jan-21 21:33N 58°48' E 018°01'6 6.3
2015-Jan-21 20:33N 58°54' E 017°58'0 0.0
2015-Jan-21 19:33N 58°54' E 017°58'0 0.0
2015-Jan-21 18:33N 58°54' E 017°58'0 0.1
2015-Jan-21 17:34N 58°55' E 017°58'  
Track history (hours):
 
Tides and Currents Weather Stations Pressure Air Temp Water Temp Dewpoint Dewpoint Depression Visibility Wind Speed Wind Dir Waves Ship Positions

Scottish Viking

Last reported at 2015-Jan-30 21:33 UTC. Time now 2015-Jan-30 21:38 UTC.
Position N 58°51' E 017°60'.

Length 186 m; draft 6.4 m.

Type: Ship. MMSI: 247265800.

Date/timePositionNaut miles runAvg speedWind from/ knotsBaromVisibWave heightAir tempDewpointWater temp
2015-Jan-30 21:33N 58°51' E 017°60'4 3.4
2015-Jan-30 20:31N 58°54' E 017°58'0 0.0
2015-Jan-30 19:31N 58°54' E 017°58'0 0.0
2015-Jan-30 18:31N 58°54' E 017°58'0 0.0
2015-Jan-30 17:31N 58°54' E 017°58'0 0.0
2015-Jan-30 16:28N 58°54' E 017°58'0 0.0
2015-Jan-30 15:31N 58°54' E 017°58'0 0.0
2015-Jan-30 14:31N 58°54' E 017°58'0 0.0
2015-Jan-30 13:31N 58°54' E 017°58'0 0.0
2015-Jan-30 12:28N 58°54' E 017°58'0 0.0
2015-Jan-30 11:31N 58°54' E 017°58'0 0.0
2015-Jan-30 10:31N 58°54' E 017°58'0 0.0
2015-Jan-30 09:31N 58°54' E 017°58'0 0.0
2015-Jan-30 08:31N 58°54' E 017°58'0 0.0
2015-Jan-30 07:28N 58°54' E 017°58'0 0.2
2015-Jan-30 06:34N 58°54' E 017°58'9 8.6
2015-Jan-30 05:34N 58°47' E 018°06'6 0.2
2015-Jan-28 23:15N 58°43' E 018°14'1217.0
2015-Jan-28 22:33N 58°53' E 018°01'2 2.4
2015-Jan-28 21:33N 58°54' E 017°58'0 0.0
2015-Jan-28 20:33N 58°54' E 017°58'0 0.0
2015-Jan-28 19:33N 58°54' E 017°58'0 0.0
2015-Jan-28 18:33N 58°54' E 017°58'0 0.2
2015-Jan-28 17:34N 58°54' E 017°58'14 0.6
2015-Jan-27 19:07N 58°43' E 018°14'814.1
2015-Jan-27 18:33N 58°48' E 018°02'7 6.4
2015-Jan-27 17:31N 58°54' E 017°58'0 0.0
2015-Jan-27 16:28N 58°54' E 017°58'0 0.0
2015-Jan-27 15:31N 58°54' E 017°58'0 0.0
2015-Jan-27 14:28N 58°54' E 017°58'0 0.0
2015-Jan-27 13:31N 58°54' E 017°58'0 0.0
2015-Jan-27 12:31N 58°54' E 017°58'0 0.0
2015-Jan-27 11:31N 58°54' E 017°58'0 0.0
2015-Jan-27 10:31N 58°54' E 017°58'0 0.0
2015-Jan-27 09:31N 58°54' E 017°58'0 0.3
2015-Jan-27 08:33N 58°55' E 017°58'14 0.6
2015-Jan-26 10:21N 58°43' E 018°14'1012.8
2015-Jan-26 09:33N 58°50' E 017°60'4 4.3
2015-Jan-26 08:32N 58°54' E 017°58'1 0.6
2015-Jan-26 07:33N 58°55' E 017°59'16 0.7
2015-Jan-25 08:28N 58°41' E 018°16'1213.3
2015-Jan-25 07:33N 58°50' E 017°60'4 4.4
2015-Jan-25 06:33N 58°54' E 017°58'0 0.0
2015-Jan-25 05:33N 58°54' E 017°58'0 0.4
2015-Jan-25 04:33N 58°55' E 017°58'9 8.9
2015-Jan-25 03:33N 58°47' E 018°06'7 0.2
2015-Jan-23 22:19N 58°42' E 018°16'1013.1
2015-Jan-23 21:33N 58°48' E 018°01'6 6.1
2015-Jan-23 20:31N 58°54' E 017°58'0 0.0
2015-Jan-23 19:31N 58°54' E 017°58'0 0.0
2015-Jan-23 18:31N 58°54' E 017°58'0 0.0
2015-Jan-23 17:31N 58°54' E 017°58'0 0.0
2015-Jan-23 16:31N 58°54' E 017°58'0 0.0
2015-Jan-23 15:31N 58°54' E 017°58'0 0.0
2015-Jan-23 14:28N 58°54' E 017°58'0 0.0
2015-Jan-23 13:31N 58°54' E 017°58'0 0.0
2015-Jan-23 12:31N 58°54' E 017°58'0 0.0
2015-Jan-23 11:31N 58°54' E 017°58'0 0.0
2015-Jan-23 10:31N 58°54' E 017°58'0 0.0
2015-Jan-23 09:31N 58°54' E 017°58'0 0.0
2015-Jan-23 08:31N 58°54' E 017°58'0 0.0
2015-Jan-23 07:28N 58°54' E 017°58'1 1.2
2015-Jan-23 06:34N 58°55' E 017°60'9 9.5
2015-Jan-23 05:33N 58°46' E 018°07'4 0.1
2015-Jan-21 22:12N 58°43' E 018°12'812.1
2015-Jan-21 21:33N 58°48' E 018°01'6 6.3
2015-Jan-21 20:33N 58°54' E 017°58'0 0.0
2015-Jan-21 19:33N 58°54' E 017°58'0 0.0
2015-Jan-21 18:33N 58°54' E 017°58'0 0.1
2015-Jan-21 17:34N 58°55' E 017°58'  

Dump ship's entire track history